Time;durP1;ratioP1;P1;durP2;ratioP2;P2;SDS_P1;SDS_P2;PMS_P1;PMS_P2;Temp;Humidity;BMP_temperature;BMP_pressure;BME280_temperature;BME280_humidity;BME280_pressure;Samples;Min_cycle;Max_cycle;Signal;HPM_P1;HPM_P2
2022/01/22 00:00:51;;;;;;;29.37;18.13;;;;;;;3.75;100.00;102696.94;5113803;28;20188;-77
2022/01/22 00:03:18;;;;;;;29.33;19.23;;;;;;;3.73;100.00;102680.53;5113736;28;20554;-77
2022/01/22 00:05:45;;;;;;;34.73;18.43;;;;;;;3.73;100.00;102685.69;5114081;28;20229;-77
2022/01/22 00:08:11;;;;;;;36.87;18.57;;;;;;;3.74;100.00;102677.94;5113655;28;20696;-77
2022/01/22 00:10:42;;;;;;;34.87;17.33;;;;;;;3.75;100.00;102679.69;5113734;28;20192;-77
2022/01/22 00:14:23;;;;;;;28.53;17.17;;;;;;;3.74;100.00;102672.78;5114312;28;20199;-77
2022/01/22 00:15:55;;;;;;;24.43;16.23;;;;;;;3.71;100.00;102687.38;5114203;28;20572;-77
2022/01/22 00:18:22;;;;;;;19.97;15.50;;;;;;;3.71;100.00;102685.66;5113580;28;20209;-77
2022/01/22 00:20:48;;;;;;;33.33;15.87;;;;;;;3.75;100.00;102690.06;5115002;28;20200;-78
2022/01/22 00:23:16;;;;;;;34.50;17.70;;;;;;;3.74;100.00;102688.31;5113628;28;20249;-78
2022/01/22 00:25:42;;;;;;;28.90;16.23;;;;;;;3.77;100.00;102692.66;5113582;28;20188;-78
2022/01/22 00:28:09;;;;;;;39.87;17.47;;;;;;;3.78;100.00;102694.41;5113469;28;20226;-77
2022/01/22 00:30:35;;;;;;;29.67;15.33;;;;;;;3.80;100.00;102692.75;5095251;28;20195;-77
2022/01/22 00:33:02;;;;;;;24.07;15.63;;;;;;;3.76;100.00;102681.44;5095321;28;20220;-77
2022/01/22 00:35:28;;;;;;;25.80;15.77;;;;;;;3.74;100.00;102680.53;5097474;28;20187;-78
2022/01/22 00:37:55;;;;;;;23.27;15.33;;;;;;;3.76;100.00;102680.56;5099246;28;20217;-77
2022/01/22 00:40:22;;;;;;;20.53;14.80;;;;;;;3.75;100.00;102681.41;5099268;28;20236;-77
2022/01/22 00:42:49;;;;;;;29.47;15.63;;;;;;;3.78;100.00;102673.69;5099178;28;20192;-77
2022/01/22 00:45:17;;;;;;;21.30;15.43;;;;;;;3.78;100.00;102678.88;5117898;28;20207;-77
2022/01/22 00:47:44;;;;;;;29.70;15.83;;;;;;;3.74;100.00;102677.06;5117344;28;20202;-77
2022/01/22 00:50:13;;;;;;;18.83;14.67;;;;;;;3.73;100.00;102675.34;5082237;28;20247;-77
2022/01/22 00:52:44;;;;;;;30.27;16.30;;;;;;;3.80;100.00;102670.28;5117264;28;20194;-77
2022/01/22 00:55:12;;;;;;;27.27;16.13;;;;;;;3.74;100.00;102674.50;5117238;28;20175;-77
2022/01/22 00:57:39;;;;;;;24.73;16.90;;;;;;;3.79;100.00;102675.44;5117171;28;20207;-77
2022/01/22 01:00:09;;;;;;;32.47;17.03;;;;;;;3.78;100.00;102676.28;5098895;28;20566;-77
2022/01/22 01:02:36;;;;;;;23.93;16.27;;;;;;;3.73;100.00;102672.75;5099163;28;20197;-77
2022/01/22 01:05:09;;;;;;;24.40;15.90;;;;;;;3.75;100.00;102678.81;5099013;28;20305;-77
2022/01/22 01:07:37;;;;;;;28.73;16.83;;;;;;;3.75;100.00;102678.81;5098690;28;20217;-77
2022/01/22 01:10:07;;;;;;;20.13;15.87;;;;;;;3.74;100.00;102684.84;5098655;28;20607;-77
2022/01/22 01:12:36;;;;;;;24.07;16.93;;;;;;;3.77;100.00;102678.00;5117443;28;20195;-77
2022/01/22 01:36:24;;;;;;;26.47;14.87;;;;;;;3.67;100.00;102672.63;5098150;28;20185;-76
2022/01/22 01:38:56;;;;;;;24.17;16.13;;;;;;;3.67;100.00;102678.69;5098183;28;20567;-77
2022/01/22 01:41:45;;;;;;;24.63;16.17;;;;;;;3.68;100.00;102677.84;5116685;28;20224;-77
2022/01/22 01:44:13;;;;;;;33.47;17.50;;;;;;;3.69;100.00;102682.16;5098290;28;20213;-77
2022/01/22 01:46:56;;;;;;;21.37;16.50;;;;;;;3.69;100.00;102686.47;5098456;28;20576;-77
2022/01/22 01:49:27;;;;;;;23.90;15.50;;;;;;;3.61;100.00;102683.75;5097977;28;20186;-78
2022/01/22 01:51:58;;;;;;;19.07;14.83;;;;;;;3.60;100.00;102689.78;5098476;28;20190;-78
2022/01/22 01:59:42;;;;;;;21.50;15.80;;;;;;;3.64;100.00;102680.31;5097981;28;20198;-77
2022/01/22 02:02:12;;;;;;;25.37;15.87;;;;;;;3.63;100.00;102678.59;5097810;28;20186;-77
2022/01/22 02:04:41;;;;;;;24.80;15.53;;;;;;;3.66;100.00;102678.66;5098485;28;20203;-77
2022/01/22 02:07:08;;;;;;;29.57;15.93;;;;;;;3.65;100.00;102674.31;5097657;28;20262;-77
2022/01/22 02:09:43;;;;;;;22.37;16.10;;;;;;;3.66;100.00;102679.53;5097977;28;20829;-78
2022/01/22 02:12:42;;;;;;;37.83;15.87;;;;;;;3.66;100.00;102674.34;5097743;28;20196;-78
2022/01/22 02:23:47;;;;;;;21.77;16.07;;;;;;;3.69;100.00;102684.75;5097345;28;20193;-77
2022/01/22 02:26:15;;;;;;;30.30;15.87;;;;;;;3.66;100.00;102682.13;5115804;28;20527;-77
2022/01/22 02:28:49;;;;;;;36.53;16.83;;;;;;;3.68;100.00;102679.56;5098058;28;20213;-77
2022/01/22 02:31:39;;;;;;;33.33;16.20;;;;;;;3.70;100.00;102683.03;5097992;28;20292;-77
2022/01/22 02:34:19;;;;;;;26.17;16.87;;;;;;;3.73;100.00;102685.69;5097095;28;20199;-77
2022/01/22 02:37:03;;;;;;;24.07;16.17;;;;;;;3.68;100.00;102676.97;5097024;28;20220;-77
2022/01/22 02:39:45;;;;;;;25.13;17.03;;;;;;;3.73;100.00;102677.94;5096995;28;20217;-77
2022/01/22 02:42:13;;;;;;;42.47;18.10;;;;;;;3.70;100.00;102670.09;5115740;28;20188;-77
2022/01/22 02:44:46;;;;;;;26.40;16.97;;;;;;;3.74;100.00;102675.34;5096765;28;20234;-77
2022/01/22 02:47:15;;;;;;;30.67;17.87;;;;;;;3.78;100.00;102676.28;5096776;28;20303;-77
2022/01/22 02:49:42;;;;;;;24.67;15.40;;;;;;;3.72;100.00;102673.59;5097855;28;20200;-77
2022/01/22 02:52:12;;;;;;;27.90;16.60;;;;;;;3.70;100.00;102665.78;5096676;28;20688;-77
2022/01/22 02:54:42;;;;;;;28.83;17.50;;;;;;;3.74;100.00;102665.00;5096718;28;20185;-77
2022/01/22 02:57:09;;;;;;;28.83;17.10;;;;;;;3.82;100.00;102657.38;5096007;28;20702;-77
2022/01/22 02:59:37;;;;;;;42.33;18.57;;;;;;;3.83;100.00;102661.69;5096660;28;20199;-78
2022/01/22 03:02:05;;;;;;;27.93;16.27;;;;;;;3.74;100.00;102671.91;5096601;28;20581;-78
2022/01/22 03:04:32;;;;;;;21.83;17.33;;;;;;;3.79;100.00;102667.69;5096697;28;20213;-78
2022/01/22 03:06:59;;;;;;;29.63;17.63;;;;;;;3.74;100.00;102672.78;5096705;28;20211;-78
2022/01/22 03:09:29;;;;;;;34.40;17.93;;;;;;;3.79;100.00;102672.88;5115103;28;20258;-78
2022/01/22 03:22:30;;;;;;;27.30;15.60;;;;;;;3.79;100.00;102675.44;5096177;28;20703;-78
2022/01/22 03:27:41;;;;;;;28.00;14.17;;;;;;;3.80;100.00;102679.78;5095777;28;20218;-78
2022/01/22 03:30:08;;;;;;;21.63;15.00;;;;;;;3.83;100.00;102685.00;5096141;28;20683;-78
2022/01/22 03:32:51;;;;;;;30.80;15.77;;;;;;;3.82;100.00;102683.28;5095602;28;20186;-78
2022/01/22 03:37:51;;;;;;;22.27;15.13;;;;;;;3.85;100.00;102698.84;5095478;28;20214;-78
2022/01/22 03:40:21;;;;;;;20.97;15.80;;;;;;;3.81;100.00;102689.31;5095392;28;20190;-78
2022/01/22 03:42:49;;;;;;;20.63;16.50;;;;;;;3.87;100.00;102697.19;5095012;28;20192;-77
2022/01/22 03:45:15;;;;;;;20.23;16.67;;;;;;;3.82;100.00;102688.44;5114232;28;20254;-78
2022/01/22 03:47:42;;;;;;;21.27;16.30;;;;;;;3.85;100.00;102688.50;5095560;28;20211;-77
2022/01/22 03:50:11;;;;;;;25.93;17.20;;;;;;;3.86;100.00;102685.09;5113800;28;20184;-77
2022/01/22 03:52:38;;;;;;;24.63;17.93;;;;;;;3.90;100.00;102688.59;5094860;28;20189;-77
2022/01/22 03:55:10;;;;;;;35.80;19.90;;;;;;;3.91;100.00;102686.00;5095754;28;20183;-78
2022/01/22 03:57:56;;;;;;;28.83;19.50;;;;;;;3.92;100.00;102685.16;5113345;28;20214;-77
2022/01/22 04:00:23;;;;;;;34.73;19.50;;;;;;;3.94;100.00;102678.31;5095156;28;20193;-77
2022/01/22 04:03:26;;;;;;;26.60;17.27;;;;;;;3.95;100.00;102680.06;5095102;28;20192;-77
2022/01/22 04:06:51;;;;;;;30.73;17.93;;;;;;;3.89;100.00;102681.66;5094536;28;20216;-77
2022/01/22 04:08:38;;;;;;;25.90;18.43;;;;;;;3.92;100.00;102679.97;5106646;28;20582;-77
2022/01/22 04:11:09;;;;;;;32.33;17.73;;;;;;;3.93;100.00;102688.63;5094965;28;20269;-78
2022/01/22 04:13:36;;;;;;;28.80;18.40;;;;;;;3.95;100.00;102682.66;5114718;28;20173;-78
2022/01/22 04:16:03;;;;;;;28.70;17.83;;;;;;;3.98;100.00;102679.22;5094125;28;20687;-76
2022/01/22 04:27:00;;;;;;;24.43;14.73;;;;;;;3.96;100.00;102689.56;5113436;28;20212;-76
2022/01/22 04:29:27;;;;;;;21.63;14.67;;;;;;;3.93;100.00;102697.31;5113864;28;20621;-77
2022/01/22 04:31:54;;;;;;;17.37;13.70;;;;;;;3.91;100.00;102691.19;5113829;28;20194;-77
2022/01/22 04:34:21;;;;;;;16.97;14.77;;;;;;;3.96;100.00;102692.16;5114110;28;20188;-77
2022/01/22 04:36:47;;;;;;;25.30;15.10;;;;;;;3.91;100.00;102690.34;5113693;28;20226;-77
2022/01/22 04:39:14;;;;;;;19.83;14.43;;;;;;;3.99;100.00;102688.75;5113740;28;20715;-77
2022/01/22 04:41:40;;;;;;;18.73;15.03;;;;;;;3.98;100.00;102695.66;5095291;28;20719;-77
2022/01/22 04:44:08;;;;;;;24.87;14.73;;;;;;;3.96;100.00;102686.97;5113415;28;20595;-77
2022/01/22 04:46:53;;;;;;;25.07;15.37;;;;;;;4.04;100.00;102694.88;5095160;28;20674;-77
2022/01/22 04:54:59;;;;;;;24.43;15.67;;;;;;;4.08;100.00;102689.78;5095410;28;20194;-77
2022/01/22 04:57:30;;;;;;;23.43;15.63;;;;;;;4.07;100.00;102692.34;5095167;28;20303;-78
2022/01/22 04:59:57;;;;;;;27.57;15.43;;;;;;;4.03;100.00;102683.66;5114106;28;20203;-77
2022/01/22 05:02:24;;;;;;;23.80;17.63;;;;;;;4.05;100.00;102692.31;5095051;28;20197;-77
2022/01/22 05:05:06;;;;;;;35.13;17.33;;;;;;;4.11;100.00;102696.75;5094928;28;20205;-77
2022/01/22 05:07:50;;;;;;;28.80;18.33;;;;;;;4.10;100.00;102693.28;5094919;28;20300;-77
2022/01/22 05:10:35;;;;;;;34.20;18.17;;;;;;;4.14;100.00;102700.28;5113506;28;20261;-77
2022/01/22 05:13:02;;;;;;;36.23;18.67;;;;;;;4.17;100.00;102703.75;5094968;28;20216;-77
2022/01/22 05:15:28;;;;;;;30.70;17.67;;;;;;;4.20;100.00;102699.47;5113427;28;20192;-77
2022/01/22 05:17:56;;;;;;;29.87;18.37;;;;;;;4.12;100.00;102707.13;5094837;28;20215;-77
2022/01/22 05:20:29;;;;;;;35.90;19.80;;;;;;;4.19;100.00;102702.06;5094982;28;20196;-77
2022/01/22 05:25:45;;;;;;;35.87;20.30;;;;;;;4.23;100.00;102702.16;5098738;28;20216;-77
2022/01/22 05:37:04;;;;;;;35.73;20.73;;;;;;;4.18;100.00;102689.94;5098895;28;20237;-76
2022/01/22 05:39:33;;;;;;;34.77;21.07;;;;;;;4.25;100.00;102697.84;5098517;28;20556;-76
2022/01/22 05:42:02;;;;;;;34.90;19.53;;;;;;;4.26;100.00;102696.13;5098165;28;20188;-77
2022/01/22 05:44:32;;;;;;;36.90;19.63;;;;;;;4.19;100.00;102689.97;5098097;28;20196;-77
2022/01/22 05:47:04;;;;;;;46.90;19.73;;;;;;;4.26;100.00;102693.53;5098004;28;20231;-77
2022/01/22 05:49:34;;;;;;;42.97;21.23;;;;;;;4.23;100.00;102698.69;5116958;28;20532;-77
2022/01/22 05:52:04;;;;;;;36.90;21.30;;;;;;;4.23;100.00;102689.19;5098178;28;20190;-78
2022/01/22 05:59:58;;;;;;;30.50;16.63;;;;;;;4.32;100.00;102698.81;5097767;28;20190;-76
2022/01/22 06:02:25;;;;;;;31.10;17.60;;;;;;;4.36;100.00;102713.59;5098023;28;20201;-77
2022/01/22 06:04:58;;;;;;;30.93;17.63;;;;;;;4.33;100.00;102717.00;5099001;28;20509;-77
2022/01/22 06:07:26;;;;;;;35.00;16.83;;;;;;;4.34;100.00;102717.88;5097931;28;20216;-76
2022/01/22 06:12:43;;;;;;;21.63;14.63;;;;;;;4.42;100.00;102719.72;5097531;28;20181;-76
2022/01/22 06:15:12;;;;;;;27.63;14.13;;;;;;;4.44;100.00;102724.09;5097773;28;20188;-76
2022/01/22 06:17:58;;;;;;;20.30;14.27;;;;;;;4.42;100.00;102729.22;5115571;28;20254;-77
2022/01/22 06:20:25;;;;;;;27.30;15.50;;;;;;;4.44;100.00;102729.28;5080425;28;20193;-77
2022/01/22 06:22:52;;;;;;;30.87;17.13;;;;;;;4.42;100.00;102730.09;5097266;28;20681;-77
2022/01/22 06:25:19;;;;;;;39.43;15.97;;;;;;;4.44;100.00;102724.09;5115693;28;20280;-76
2022/01/22 06:27:46;;;;;;;29.80;15.77;;;;;;;4.42;100.00;102729.22;5097590;28;20563;-76
2022/01/22 06:30:13;;;;;;;28.43;16.17;;;;;;;4.47;100.00;102729.31;5097948;28;20189;-76
2022/01/22 06:32:46;;;;;;;24.40;15.77;;;;;;;4.42;100.00;102735.28;5096332;28;20193;-76
2022/01/22 06:35:13;;;;;;;26.50;14.43;;;;;;;4.47;100.00;102734.50;5097729;28;20182;-77
2022/01/22 06:37:41;;;;;;;23.83;13.80;;;;;;;4.47;100.00;102740.56;5081010;28;20631;-76
2022/01/22 06:43:25;;;;;;;25.57;14.37;;;;;;;4.50;100.00;102742.31;5097122;28;20200;-76
2022/01/22 06:46:15;;;;;;;18.87;14.77;;;;;;;4.56;100.00;102753.69;5097134;28;20236;-76
2022/01/22 06:48:55;;;;;;;25.03;15.20;;;;;;;4.46;100.00;102748.31;5097140;28;20197;-76
2022/01/22 06:51:42;;;;;;;24.50;14.10;;;;;;;4.47;100.00;102755.25;5073480;28;20198;-76
2022/01/22 06:54:11;;;;;;;31.80;15.53;;;;;;;4.53;100.00;102750.19;5096787;28;20193;-77
2022/01/22 06:56:38;;;;;;;21.73;14.47;;;;;;;4.51;100.00;102751.88;5114878;28;20212;-77
2022/01/22 06:59:11;;;;;;;26.60;14.80;;;;;;;4.52;100.00;102757.09;5096941;28;20207;-77
2022/01/22 07:01:40;;;;;;;24.17;14.43;;;;;;;4.44;100.00;102753.50;5096988;28;20200;-77
2022/01/22 07:04:17;;;;;;;23.53;14.30;;;;;;;4.48;100.00;102757.88;5096868;28;20220;-77
2022/01/22 07:07:10;;;;;;;22.40;14.20;;;;;;;4.52;100.00;102756.22;5096411;28;20593;-77
2022/01/22 07:09:37;;;;;;;23.13;15.37;;;;;;;4.57;100.00;102758.03;5096394;28;20189;-76
2022/01/22 07:12:05;;;;;;;23.20;15.70;;;;;;;4.44;100.00;102763.88;5096356;28;20189;-77
2022/01/22 07:14:32;;;;;;;41.67;17.90;;;;;;;4.53;100.00;102774.38;5096290;28;20684;-77
2022/01/22 07:16:59;;;;;;;37.27;16.70;;;;;;;4.47;100.00;102781.19;5096130;28;20235;-77
2022/01/22 07:19:41;;;;;;;48.73;18.23;;;;;;;4.53;100.00;102777.00;5096292;28;20200;-77
2022/01/22 07:22:35;;;;;;;30.23;16.20;;;;;;;4.56;100.00;102776.16;5096162;28;20239;-77
2022/01/22 07:25:33;;;;;;;27.87;14.30;;;;;;;4.50;100.00;102782.13;5058087;28;20223;-77
2022/01/22 07:28:17;;;;;;;25.70;14.97;;;;;;;4.58;100.00;102790.03;5096304;28;20576;-76
2022/01/22 07:30:46;;;;;;;23.20;12.37;;;;;;;4.46;100.00;102785.50;5096071;28;20188;-77
2022/01/22 07:33:13;;;;;;;27.43;15.00;;;;;;;4.47;100.00;102788.97;5095983;28;20278;-77
2022/01/22 07:35:40;;;;;;;37.23;15.63;;;;;;;4.52;100.00;102796.00;5095937;28;20190;-77
2022/01/22 07:38:09;;;;;;;37.40;15.70;;;;;;;4.51;100.00;102794.25;5095828;28;20278;-76
2022/01/22 07:40:37;;;;;;;26.67;15.33;;;;;;;4.58;100.00;102790.91;5095851;28;20192;-76
2022/01/22 07:43:09;;;;;;;30.67;16.97;;;;;;;4.59;100.00;102795.25;5095921;28;20192;-76
2022/01/22 07:45:55;;;;;;;40.17;17.93;;;;;;;4.52;100.00;102796.00;5114227;28;20273;-76
2022/01/22 07:48:27;;;;;;;32.50;16.67;;;;;;;4.56;100.00;102800.38;5095644;28;20209;-76
2022/01/22 07:51:09;;;;;;;33.80;15.83;;;;;;;4.56;100.00;102800.38;5114622;28;20186;-76
2022/01/22 07:53:36;;;;;;;32.57;16.83;;;;;;;4.59;100.00;102807.34;5095584;28;20666;-76
2022/01/22 07:56:07;;;;;;;32.37;16.50;;;;;;;4.47;100.00;102800.22;5096741;28;20192;-76
2022/01/22 07:58:34;;;;;;;34.13;17.37;;;;;;;4.57;100.00;102798.66;5095523;28;20212;-76
2022/01/22 08:01:01;;;;;;;36.50;16.13;;;;;;;4.58;100.00;102803.88;5095576;28;20192;-76
2022/01/22 08:03:36;;;;;;;23.70;16.23;;;;;;;4.52;100.00;102810.69;5080104;28;20184;-76
2022/01/22 08:06:29;;;;;;;37.73;16.63;;;;;;;4.50;100.00;102810.66;5113352;28;20672;-76
2022/01/22 08:09:13;;;;;;;39.07;15.87;;;;;;;4.56;100.00;102812.47;5113790;28;20722;-76
2022/01/22 08:11:59;;;;;;;29.50;15.03;;;;;;;4.61;100.00;102803.94;5096349;28;20237;-76
2022/01/22 08:14:26;;;;;;;31.47;16.00;;;;;;;4.62;100.00;102808.25;5095393;28;20217;-77
2022/01/22 08:16:53;;;;;;;34.67;15.53;;;;;;;4.60;100.00;102809.09;5095328;28;20216;-75
2022/01/22 08:19:24;;;;;;;27.90;15.47;;;;;;;4.66;100.00;102815.25;5095671;28;20201;-76
2022/01/22 08:21:51;;;;;;;33.73;14.60;;;;;;;4.62;100.00;102821.22;5095384;28;20191;-76
2022/01/22 08:24:37;;;;;;;28.93;14.67;;;;;;;4.64;100.00;102814.38;5113770;28;20246;-76
2022/01/22 08:29:38;;;;;;;26.93;14.87;;;;;;;4.64;100.00;102805.69;5095180;28;20682;-76
2022/01/22 08:32:23;;;;;;;42.27;15.47;;;;;;;4.66;100.00;102812.66;5095228;28;20193;-76
2022/01/22 08:37:35;;;;;;;33.03;15.93;;;;;;;4.62;100.00;102800.47;5095127;28;20242;-76
2022/01/22 08:40:04;;;;;;;25.50;14.73;;;;;;;4.73;100.00;102794.63;5095220;28;20531;-77
2022/01/22 08:42:31;;;;;;;48.30;16.00;;;;;;;4.68;100.00;102797.13;5095209;28;20192;-77
2022/01/22 08:44:58;;;;;;;24.80;14.13;;;;;;;4.63;100.00;102798.75;5095147;28;20218;-76
2022/01/22 08:47:24;;;;;;;34.97;16.17;;;;;;;4.69;100.00;102794.53;5095017;28;20252;-76
2022/01/22 08:49:51;;;;;;;25.53;15.67;;;;;;;4.73;100.00;102799.81;5095138;28;20177;-76
2022/01/22 08:52:22;;;;;;;25.80;14.87;;;;;;;4.76;100.00;102808.50;5095359;28;20292;-76
2022/01/22 08:54:49;;;;;;;31.53;15.17;;;;;;;4.80;100.00;102806.84;5095146;28;20193;-77
2022/01/22 08:57:18;;;;;;;27.93;16.00;;;;;;;4.76;100.00;102812.81;5098714;28;20205;-76
2022/01/22 08:59:56;;;;;;;21.83;14.40;;;;;;;4.70;100.00;102811.84;5098913;28;20234;-76
2022/01/22 09:02:22;;;;;;;29.87;15.17;;;;;;;4.72;100.00;102818.81;5098932;28;20199;-76
2022/01/22 09:05:09;;;;;;;29.47;16.20;;;;;;;4.70;100.00;102818.78;5117124;28;20227;-76
2022/01/22 09:07:46;;;;;;;28.97;13.90;;;;;;;4.69;100.00;102822.22;5098864;28;20593;-76
2022/01/22 09:10:31;;;;;;;28.07;15.73;;;;;;;4.73;100.00;102826.63;5084446;28;20673;-76
2022/01/22 09:13:07;;;;;;;26.10;15.80;;;;;;;4.71;100.00;102825.69;5098683;28;20199;-76
2022/01/22 09:15:53;;;;;;;25.47;15.00;;;;;;;4.78;100.00;102824.09;5098611;28;20562;-76
2022/01/22 09:18:20;;;;;;;37.40;17.57;;;;;;;4.73;100.00;102825.75;5081583;28;20209;-76
2022/01/22 09:23:18;;;;;;;37.17;16.80;;;;;;;4.82;100.00;102828.50;5098586;28;20213;-76
2022/01/22 09:25:45;;;;;;;38.03;16.60;;;;;;;4.77;100.00;102832.72;5098325;28;20193;-77
2022/01/22 09:28:13;;;;;;;30.97;16.47;;;;;;;4.79;100.00;102828.44;5098842;28;20639;-77
2022/01/22 09:30:46;;;;;;;29.30;16.90;;;;;;;4.77;100.00;102841.38;5098928;28;20186;-77
2022/01/22 09:33:12;;;;;;;32.33;16.77;;;;;;;4.81;100.00;102839.72;5098253;28;20200;-77
2022/01/22 09:35:50;;;;;;;33.20;16.47;;;;;;;4.82;100.00;102838.88;5098440;28;20192;-77
2022/01/22 09:38:33;;;;;;;33.10;16.17;;;;;;;4.80;100.00;102837.97;5098114;28;20243;-77
2022/01/22 09:41:38;;;;;;;21.87;14.23;;;;;;;4.75;100.00;102837.03;4994950;28;20216;-77
2022/01/22 09:44:30;;;;;;;21.27;13.63;;;;;;;4.80;100.00;102845.78;4994518;28;20243;-77
2022/01/22 09:47:23;;;;;;;23.93;13.40;;;;;;;4.77;100.00;102859.53;5076875;28;20221;-78
2022/01/22 09:50:08;;;;;;;28.00;13.97;;;;;;;4.80;100.00;102846.63;5097931;28;20189;-77
2022/01/22 09:53:12;;;;;;;23.40;13.53;;;;;;;4.83;100.00;102856.19;5098069;28;20270;-77
2022/01/22 09:55:57;;;;;;;23.00;12.93;;;;;;;4.90;100.00;102852.84;5116691;28;20192;-77
2022/01/22 09:58:47;;;;;;;25.57;14.10;;;;;;;4.93;100.00;102850.31;5107440;28;20238;-77
2022/01/22 10:01:30;;;;;;;28.40;15.33;;;;;;;4.94;100.00;102850.34;5097688;28;20700;-77
2022/01/22 10:04:06;;;;;;;22.00;13.73;;;;;;;4.97;100.00;102850.38;5098562;28;20199;-77
2022/01/22 10:06:53;;;;;;;19.80;13.00;;;;;;;4.97;100.00;102854.69;5116264;28;20298;-77
2022/01/22 10:09:54;;;;;;;30.57;14.87;;;;;;;5.11;100.00;102857.50;5097797;28;20216;-77
2022/01/22 10:12:52;;;;;;;25.20;14.30;;;;;;;5.07;100.00;102863.50;5116277;28;20198;-77
2022/01/22 10:15:27;;;;;;;33.07;14.50;;;;;;;5.09;100.00;102862.69;5116094;28;20197;-77
2022/01/22 10:17:56;;;;;;;29.87;14.97;;;;;;;5.02;100.00;102863.44;5097355;28;20205;-77
2022/01/22 10:20:26;;;;;;;32.07;15.80;;;;;;;5.02;100.00;102867.75;5115488;28;20197;-77
2022/01/22 10:23:03;;;;;;;27.20;16.13;;;;;;;4.96;100.00;102871.13;5115939;28;20643;-77
2022/01/22 10:25:41;;;;;;;31.40;16.03;;;;;;;4.97;100.00;102863.34;5115853;28;20177;-77
2022/01/22 10:28:13;;;;;;;31.67;15.17;;;;;;;5.04;100.00;102866.91;5115888;28;20217;-77
2022/01/22 10:30:43;;;;;;;22.10;13.77;;;;;;;5.06;100.00;102861.75;5115999;28;20604;-77
2022/01/22 10:33:28;;;;;;;26.67;14.70;;;;;;;4.98;100.00;102867.69;5097401;28;20228;-77
2022/01/22 10:36:17;;;;;;;24.33;14.43;;;;;;;5.00;100.00;102869.44;5115931;28;20182;-77
2022/01/22 10:39:11;;;;;;;25.13;14.53;;;;;;;5.07;100.00;102869.59;5115569;28;20243;-77
2022/01/22 10:41:42;;;;;;;28.17;14.30;;;;;;;5.01;100.00;102866.88;5115354;28;20181;-77
2022/01/22 10:44:15;;;;;;;27.37;15.13;;;;;;;5.14;100.00;102863.66;5115519;28;20173;-77
2022/01/22 10:46:48;;;;;;;25.47;14.77;;;;;;;5.23;100.00;102870.69;5115584;28;20221;-77
2022/01/22 10:49:23;;;;;;;22.23;14.73;;;;;;;5.31;100.00;102869.09;5115060;28;20181;-76
2022/01/22 10:51:59;;;;;;;21.33;12.13;;;;;;;5.21;100.00;102868.09;5115284;28;20180;-77
2022/01/22 10:54:28;;;;;;;16.80;12.27;;;;;;;5.34;100.00;102865.66;5115260;28;20183;-77
2022/01/22 10:57:10;;;;;;;16.27;11.07;;;;;;;5.38;100.00;102870.06;5114881;28;20205;-77
2022/01/22 10:59:36;;;;;;;21.33;11.90;;;;;;;5.43;100.00;102865.78;5115155;28;20193;-77
2022/01/22 11:02:04;;;;;;;17.53;9.80;;;;;;;5.42;100.00;102858.84;5115305;28;20189;-77
2022/01/22 11:04:34;;;;;;;12.23;10.37;;;;;;;5.42;100.00;102857.09;5114992;28;20658;-77
2022/01/22 11:07:06;;;;;;;14.27;9.17;;;;;;;5.48;100.00;102856.34;5114620;28;20231;-76
2022/01/22 11:09:52;;;;;;;10.57;9.43;;;;;;;5.59;100.00;102857.38;5114945;28;20190;-76
2022/01/22 11:12:19;;;;;;;19.63;8.97;;;;;;;5.60;100.00;102847.84;5114622;28;20237;-77
2022/01/22 11:14:45;;;;;;;13.20;8.50;;;;;;;5.55;100.00;102845.19;5114567;28;20186;-77
2022/01/22 11:17:13;;;;;;;8.83;8.00;;;;;;;5.59;100.00;102844.38;5114425;28;20197;-76
2022/01/22 11:19:43;;;;;;;11.70;8.70;;;;;;;5.55;100.00;102852.97;5113719;28;20238;-77
2022/01/22 11:22:12;;;;;;;8.47;7.87;;;;;;;5.56;100.00;102844.31;5114733;28;20166;-77
2022/01/22 11:24:51;;;;;;;10.07;9.10;;;;;;;5.52;100.00;102845.16;5114980;28;20173;-77
2022/01/22 11:27:19;;;;;;;13.60;10.00;;;;;;;5.58;100.00;102844.38;5114755;28;20658;-77
2022/01/22 11:29:53;;;;;;;9.43;8.40;;;;;;;5.55;100.00;102845.19;5114215;28;20189;-77
2022/01/22 11:32:26;;;;;;;10.10;9.17;;;;;;;5.69;100.00;102848.84;5096246;28;20583;-77
2022/01/22 11:34:57;;;;;;;7.13;6.43;;;;;;;5.66;100.00;102850.53;5114566;28;20165;-77
2022/01/22 11:37:29;;;;;;;5.90;5.30;;;;;;;5.62;100.00;102854.78;5096253;28;20197;-77
2022/01/22 11:40:22;;;;;;;6.73;6.33;;;;;;;5.62;100.00;102859.13;5114141;28;20177;-77
2022/01/22 11:45:28;;;;;;;8.60;6.07;;;;;;;5.55;100.00;102860.75;5114358;28;20180;-76
2022/01/22 11:48:15;;;;;;;6.50;5.90;;;;;;;5.57;100.00;102856.44;5113899;28;20262;-77
2022/01/22 11:50:44;;;;;;;5.80;5.47;;;;;;;5.51;100.00;102852.06;5114471;28;20177;-76
2022/01/22 11:53:25;;;;;;;6.00;5.43;;;;;;;5.57;100.00;102855.59;5114224;28;20182;-77
2022/01/22 11:56:26;;;;;;;6.90;6.37;;;;;;;5.59;100.00;102849.56;5114495;28;20177;-77
2022/01/22 11:58:55;;;;;;;5.93;5.50;;;;;;;5.57;100.00;102846.06;5099764;28;20286;-76
2022/01/22 12:01:37;;;;;;;8.30;6.30;;;;;;;5.58;100.00;102850.44;5113802;28;20181;-77
2022/01/22 12:04:05;;;;;;;6.23;5.90;;;;;;;5.62;100.00;102852.19;5114017;28;20730;-77
2022/01/22 12:07:02;;;;;;;9.40;5.67;;;;;;;5.54;100.00;102856.41;5113844;28;20189;-76
2022/01/22 12:09:32;;;;;;;6.20;5.77;;;;;;;5.53;100.00;102852.09;5113639;28;20196;-77
2022/01/22 12:15:23;;;;;;;6.97;6.37;;;;;;;5.56;100.00;102844.31;5113963;28;20183;-76
2022/01/22 12:17:50;;;;;;;7.30;6.67;;;;;;;5.57;100.00;102840.88;5113872;28;20225;-76
2022/01/22 12:23:12;;;;;;;9.83;8.57;;;;;;;5.57;100.00;102835.66;5095358;28;20213;-76
2022/01/22 12:25:39;;;;;;;10.73;7.47;;;;;;;5.57;100.00;102833.06;5078620;28;20193;-76
2022/01/22 12:28:11;;;;;;;14.90;9.97;;;;;;;5.53;100.00;102834.75;5114062;28;20208;-77
2022/01/22 12:30:49;;;;;;;9.97;7.93;;;;;;;5.49;100.00;102838.16;5114649;28;20173;-77
2022/01/22 12:33:28;;;;;;;9.43;7.43;;;;;;;5.52;100.00;102847.75;5118299;28;20176;-77
2022/01/22 12:36:12;;;;;;;7.47;6.90;;;;;;;5.53;100.00;102839.97;5117690;28;20253;-78
2022/01/22 12:38:51;;;;;;;13.07;6.83;;;;;;;5.55;100.00;102842.56;5117543;28;20201;-77
2022/01/22 12:44:27;;;;;;;6.97;6.53;;;;;;;5.65;100.00;102841.88;5117865;28;20189;-77
2022/01/22 12:46:57;;;;;;;6.37;5.87;;;;;;;5.67;100.00;102847.06;5118033;28;20648;-76
2022/01/22 12:49:25;;;;;;;6.40;5.60;;;;;;;5.74;100.00;102844.56;5117963;28;20166;-76
2022/01/22 12:51:58;;;;;;;13.70;7.17;;;;;;;5.71;100.00;102843.66;5117348;28;20169;-76
2022/01/22 12:54:35;;;;;;;10.40;6.50;;;;;;;5.78;100.00;102845.47;5117472;28;20177;-76
2022/01/22 12:57:03;;;;;;;6.93;6.23;;;;;;;5.73;100.00;102840.25;5117265;28;20614;-76
2022/01/22 12:59:32;;;;;;;6.57;5.93;;;;;;;5.72;100.00;102842.81;5116941;28;20184;-77
2022/01/22 13:01:58;;;;;;;6.63;6.13;;;;;;;5.77;100.00;102849.81;5117005;28;20189;-76
2022/01/22 13:04:25;;;;;;;13.17;6.67;;;;;;;5.71;100.00;102848.84;5117370;28;20181;-76
2022/01/22 13:07:12;;;;;;;6.47;6.10;;;;;;;5.68;100.00;102847.09;5098639;28;20236;-77
2022/01/22 13:10:05;;;;;;;6.27;5.77;;;;;;;5.64;100.00;102853.09;5117400;28;20652;-77
2022/01/22 13:12:34;;;;;;;6.43;5.93;;;;;;;5.65;100.00;102852.25;5117516;28;20191;-76
2022/01/22 13:15:01;;;;;;;5.80;5.60;;;;;;;5.63;100.00;102850.47;5116946;28;20190;-76
2022/01/22 13:17:29;;;;;;;6.13;5.83;;;;;;;5.67;100.00;102849.69;5117063;28;20247;-76
2022/01/22 13:19:56;;;;;;;9.00;6.10;;;;;;;5.67;100.00;102849.69;5116882;28;20662;-76
2022/01/22 13:22:34;;;;;;;5.60;5.27;;;;;;;5.62;100.00;102867.78;5116686;28;20700;-76
2022/01/22 13:25:12;;;;;;;7.30;6.10;;;;;;;5.48;100.00;102866.72;5116669;28;20538;-77
2022/01/22 13:27:40;;;;;;;6.30;5.83;;;;;;;5.50;100.00;102867.59;5116678;28;20614;-76